sensor_id;sensor_type;location;lat;lon;timestamp;P1;durP1;ratioP1;P2;durP2;ratioP2
12950;SDS011;6540;50.858;7.232;2023-04-10T00:01:12;6.60;;;4.77;;
12950;SDS011;6540;50.858;7.232;2023-04-10T00:03:38;13.40;;;5.20;;
12950;SDS011;6540;50.858;7.232;2023-04-10T00:06:03;7.73;;;5.40;;
12950;SDS011;6540;50.858;7.232;2023-04-10T00:08:29;11.33;;;6.37;;
12950;SDS011;6540;50.858;7.232;2023-04-10T00:10:55;5.37;;;4.87;;
12950;SDS011;6540;50.858;7.232;2023-04-10T00:13:21;9.90;;;5.43;;
12950;SDS011;6540;50.858;7.232;2023-04-10T00:15:47;7.77;;;5.47;;
12950;SDS011;6540;50.858;7.232;2023-04-10T00:18:12;8.47;;;5.83;;
12950;SDS011;6540;50.858;7.232;2023-04-10T00:20:38;7.87;;;5.60;;
12950;SDS011;6540;50.858;7.232;2023-04-10T00:23:03;7.53;;;5.97;;
12950;SDS011;6540;50.858;7.232;2023-04-10T00:25:28;8.07;;;5.93;;
12950;SDS011;6540;50.858;7.232;2023-04-10T00:27:54;6.20;;;5.03;;
12950;SDS011;6540;50.858;7.232;2023-04-10T00:30:19;6.17;;;5.37;;
12950;SDS011;6540;50.858;7.232;2023-04-10T00:32:45;7.60;;;5.13;;
12950;SDS011;6540;50.858;7.232;2023-04-10T00:35:11;7.67;;;5.33;;
12950;SDS011;6540;50.858;7.232;2023-04-10T00:37:37;8.57;;;5.53;;
12950;SDS011;6540;50.858;7.232;2023-04-10T00:40:02;11.17;;;6.03;;
12950;SDS011;6540;50.858;7.232;2023-04-10T00:42:28;8.80;;;5.87;;
12950;SDS011;6540;50.858;7.232;2023-04-10T00:44:54;10.80;;;6.27;;
12950;SDS011;6540;50.858;7.232;2023-04-10T00:47:19;7.87;;;5.00;;
12950;SDS011;6540;50.858;7.232;2023-04-10T00:49:45;7.80;;;6.00;;
12950;SDS011;6540;50.858;7.232;2023-04-10T00:52:11;9.33;;;6.13;;
12950;SDS011;6540;50.858;7.232;2023-04-10T00:54:36;8.60;;;5.27;;
12950;SDS011;6540;50.858;7.232;2023-04-10T00:57:02;9.63;;;6.27;;
12950;SDS011;6540;50.858;7.232;2023-04-10T00:59:30;9.10;;;6.17;;
12950;SDS011;6540;50.858;7.232;2023-04-10T01:01:56;7.93;;;5.70;;
12950;SDS011;6540;50.858;7.232;2023-04-10T01:04:22;9.87;;;6.00;;
12950;SDS011;6540;50.858;7.232;2023-04-10T01:09:52;6.17;;;5.03;;
12950;SDS011;6540;50.858;7.232;2023-04-10T01:15:09;7.40;;;5.53;;
12950;SDS011;6540;50.858;7.232;2023-04-10T01:17:51;7.53;;;4.97;;
12950;SDS011;6540;50.858;7.232;2023-04-10T01:20:29;7.80;;;4.80;;
12950;SDS011;6540;50.858;7.232;2023-04-10T01:26:02;7.33;;;5.13;;
12950;SDS011;6540;50.858;7.232;2023-04-10T01:28:42;9.13;;;6.27;;
12950;SDS011;6540;50.858;7.232;2023-04-10T01:31:12;7.77;;;5.97;;
12950;SDS011;6540;50.858;7.232;2023-04-10T01:33:45;10.30;;;6.40;;
12950;SDS011;6540;50.858;7.232;2023-04-10T01:36:27;9.23;;;5.97;;
12950;SDS011;6540;50.858;7.232;2023-04-10T01:38:58;7.53;;;4.80;;
12950;SDS011;6540;50.858;7.232;2023-04-10T01:41:24;9.70;;;6.33;;
12950;SDS011;6540;50.858;7.232;2023-04-10T01:43:51;9.13;;;6.13;;
12950;SDS011;6540;50.858;7.232;2023-04-10T01:46:18;7.77;;;5.33;;
12950;SDS011;6540;50.858;7.232;2023-04-10T01:48:44;8.37;;;6.00;;
12950;SDS011;6540;50.858;7.232;2023-04-10T01:51:11;8.70;;;5.40;;
12950;SDS011;6540;50.858;7.232;2023-04-10T01:53:38;9.47;;;5.77;;
12950;SDS011;6540;50.858;7.232;2023-04-10T01:56:06;8.87;;;6.37;;
12950;SDS011;6540;50.858;7.232;2023-04-10T01:58:33;8.40;;;5.90;;
12950;SDS011;6540;50.858;7.232;2023-04-10T02:00:59;8.43;;;6.17;;
12950;SDS011;6540;50.858;7.232;2023-04-10T02:03:24;8.07;;;5.30;;
12950;SDS011;6540;50.858;7.232;2023-04-10T02:05:55;8.27;;;5.43;;
12950;SDS011;6540;50.858;7.232;2023-04-10T02:08:41;10.90;;;5.90;;
12950;SDS011;6540;50.858;7.232;2023-04-10T02:11:46;7.60;;;5.70;;
12950;SDS011;6540;50.858;7.232;2023-04-10T02:14:22;8.00;;;5.03;;
12950;SDS011;6540;50.858;7.232;2023-04-10T02:16:52;10.40;;;5.80;;
12950;SDS011;6540;50.858;7.232;2023-04-10T02:19:20;8.60;;;5.90;;
12950;SDS011;6540;50.858;7.232;2023-04-10T02:21:47;9.47;;;5.33;;
12950;SDS011;6540;50.858;7.232;2023-04-10T02:24:13;8.13;;;5.70;;
12950;SDS011;6540;50.858;7.232;2023-04-10T02:26:46;12.23;;;6.10;;
12950;SDS011;6540;50.858;7.232;2023-04-10T02:29:12;9.63;;;6.00;;
12950;SDS011;6540;50.858;7.232;2023-04-10T02:31:39;9.77;;;5.93;;
12950;SDS011;6540;50.858;7.232;2023-04-10T02:34:05;10.10;;;6.03;;
12950;SDS011;6540;50.858;7.232;2023-04-10T02:36:31;11.93;;;5.87;;
12950;SDS011;6540;50.858;7.232;2023-04-10T02:38:56;9.67;;;6.53;;
12950;SDS011;6540;50.858;7.232;2023-04-10T02:41:22;12.77;;;6.20;;
12950;SDS011;6540;50.858;7.232;2023-04-10T02:43:48;9.67;;;6.23;;
12950;SDS011;6540;50.858;7.232;2023-04-10T02:46:13;8.00;;;5.33;;
12950;SDS011;6540;50.858;7.232;2023-04-10T02:48:39;8.43;;;6.47;;
12950;SDS011;6540;50.858;7.232;2023-04-10T02:51:04;9.27;;;5.77;;
12950;SDS011;6540;50.858;7.232;2023-04-10T02:53:31;9.10;;;6.00;;
12950;SDS011;6540;50.858;7.232;2023-04-10T02:55:57;7.20;;;5.00;;
12950;SDS011;6540;50.858;7.232;2023-04-10T02:58:22;9.63;;;5.37;;
12950;SDS011;6540;50.858;7.232;2023-04-10T03:00:48;9.30;;;5.57;;
12950;SDS011;6540;50.858;7.232;2023-04-10T03:03:14;11.03;;;6.13;;
12950;SDS011;6540;50.858;7.232;2023-04-10T03:05:40;8.93;;;5.90;;
12950;SDS011;6540;50.858;7.232;2023-04-10T03:08:06;9.03;;;6.00;;
12950;SDS011;6540;50.858;7.232;2023-04-10T03:10:31;9.37;;;5.70;;
12950;SDS011;6540;50.858;7.232;2023-04-10T03:12:57;10.47;;;5.87;;
12950;SDS011;6540;50.858;7.232;2023-04-10T03:15:22;8.50;;;5.70;;
12950;SDS011;6540;50.858;7.232;2023-04-10T03:17:47;8.73;;;5.70;;
12950;SDS011;6540;50.858;7.232;2023-04-10T03:20:13;9.43;;;5.70;;
12950;SDS011;6540;50.858;7.232;2023-04-10T03:22:39;8.20;;;5.53;;
12950;SDS011;6540;50.858;7.232;2023-04-10T03:25:05;9.10;;;5.23;;
12950;SDS011;6540;50.858;7.232;2023-04-10T03:27:30;8.63;;;5.33;;
12950;SDS011;6540;50.858;7.232;2023-04-10T03:29:58;6.47;;;5.17;;
12950;SDS011;6540;50.858;7.232;2023-04-10T03:32:24;9.83;;;5.93;;
12950;SDS011;6540;50.858;7.232;2023-04-10T03:34:52;10.80;;;5.20;;
12950;SDS011;6540;50.858;7.232;2023-04-10T03:37:17;9.63;;;6.03;;
12950;SDS011;6540;50.858;7.232;2023-04-10T03:39:43;8.07;;;5.53;;
12950;SDS011;6540;50.858;7.232;2023-04-10T03:42:09;13.10;;;5.83;;
12950;SDS011;6540;50.858;7.232;2023-04-10T03:44:35;7.80;;;5.90;;
12950;SDS011;6540;50.858;7.232;2023-04-10T03:47:00;8.27;;;5.23;;
12950;SDS011;6540;50.858;7.232;2023-04-10T03:49:26;7.90;;;5.27;;
12950;SDS011;6540;50.858;7.232;2023-04-10T03:51:51;6.67;;;4.63;;
12950;SDS011;6540;50.858;7.232;2023-04-10T03:54:17;8.43;;;5.23;;
12950;SDS011;6540;50.858;7.232;2023-04-10T03:56:42;8.10;;;5.70;;
12950;SDS011;6540;50.858;7.232;2023-04-10T03:59:07;8.03;;;5.53;;
12950;SDS011;6540;50.858;7.232;2023-04-10T04:01:33;8.37;;;5.57;;
12950;SDS011;6540;50.858;7.232;2023-04-10T04:03:58;9.03;;;5.27;;
12950;SDS011;6540;50.858;7.232;2023-04-10T04:06:23;8.13;;;6.10;;
12950;SDS011;6540;50.858;7.232;2023-04-10T04:08:49;9.30;;;4.83;;
12950;SDS011;6540;50.858;7.232;2023-04-10T04:11:14;5.73;;;4.77;;
12950;SDS011;6540;50.858;7.232;2023-04-10T04:13:40;7.47;;;4.63;;
12950;SDS011;6540;50.858;7.232;2023-04-10T04:16:05;8.40;;;5.37;;
12950;SDS011;6540;50.858;7.232;2023-04-10T04:18:31;5.27;;;4.10;;
12950;SDS011;6540;50.858;7.232;2023-04-10T04:20:56;9.23;;;4.87;;
12950;SDS011;6540;50.858;7.232;2023-04-10T04:23:22;6.63;;;4.67;;
12950;SDS011;6540;50.858;7.232;2023-04-10T04:25:47;8.03;;;4.97;;
12950;SDS011;6540;50.858;7.232;2023-04-10T04:28:16;6.27;;;4.23;;
12950;SDS011;6540;50.858;7.232;2023-04-10T04:30:42;6.13;;;4.63;;
12950;SDS011;6540;50.858;7.232;2023-04-10T04:33:07;6.40;;;4.83;;
12950;SDS011;6540;50.858;7.232;2023-04-10T04:35:32;5.87;;;4.73;;
12950;SDS011;6540;50.858;7.232;2023-04-10T04:37:58;7.30;;;4.47;;
12950;SDS011;6540;50.858;7.232;2023-04-10T04:40:23;4.83;;;4.33;;
12950;SDS011;6540;50.858;7.232;2023-04-10T04:42:48;8.70;;;4.87;;
12950;SDS011;6540;50.858;7.232;2023-04-10T04:45:14;9.53;;;5.17;;
12950;SDS011;6540;50.858;7.232;2023-04-10T04:47:39;8.23;;;4.40;;
12950;SDS011;6540;50.858;7.232;2023-04-10T04:50:05;9.53;;;4.90;;
12950;SDS011;6540;50.858;7.232;2023-04-10T04:52:31;8.70;;;5.23;;
12950;SDS011;6540;50.858;7.232;2023-04-10T04:54:56;6.60;;;5.07;;
12950;SDS011;6540;50.858;7.232;2023-04-10T04:57:21;6.00;;;4.73;;
12950;SDS011;6540;50.858;7.232;2023-04-10T04:59:47;7.80;;;5.50;;
12950;SDS011;6540;50.858;7.232;2023-04-10T05:02:12;7.37;;;4.13;;
12950;SDS011;6540;50.858;7.232;2023-04-10T05:04:37;7.73;;;4.63;;
12950;SDS011;6540;50.858;7.232;2023-04-10T05:07:03;5.97;;;4.07;;
12950;SDS011;6540;50.858;7.232;2023-04-10T05:09:28;6.63;;;4.83;;
12950;SDS011;6540;50.858;7.232;2023-04-10T05:11:53;6.50;;;4.77;;
12950;SDS011;6540;50.858;7.232;2023-04-10T05:14:19;5.87;;;4.30;;
12950;SDS011;6540;50.858;7.232;2023-04-10T05:16:46;7.07;;;4.97;;
12950;SDS011;6540;50.858;7.232;2023-04-10T05:19:11;6.27;;;4.30;;
12950;SDS011;6540;50.858;7.232;2023-04-10T05:21:36;11.73;;;5.50;;
12950;SDS011;6540;50.858;7.232;2023-04-10T05:24:02;7.27;;;5.37;;
12950;SDS011;6540;50.858;7.232;2023-04-10T05:26:27;8.33;;;4.90;;
12950;SDS011;6540;50.858;7.232;2023-04-10T05:28:52;8.00;;;5.43;;
12950;SDS011;6540;50.858;7.232;2023-04-10T05:31:18;6.80;;;5.23;;
12950;SDS011;6540;50.858;7.232;2023-04-10T05:33:43;8.53;;;5.03;;
12950;SDS011;6540;50.858;7.232;2023-04-10T05:36:09;7.80;;;4.93;;
12950;SDS011;6540;50.858;7.232;2023-04-10T05:38:34;9.40;;;5.00;;
12950;SDS011;6540;50.858;7.232;2023-04-10T05:41:00;8.43;;;5.40;;
12950;SDS011;6540;50.858;7.232;2023-04-10T05:43:25;6.57;;;4.80;;
12950;SDS011;6540;50.858;7.232;2023-04-10T05:45:50;9.73;;;4.93;;
12950;SDS011;6540;50.858;7.232;2023-04-10T05:48:16;7.50;;;4.83;;
12950;SDS011;6540;50.858;7.232;2023-04-10T05:50:41;7.37;;;4.40;;
12950;SDS011;6540;50.858;7.232;2023-04-10T05:53:09;6.73;;;4.57;;
12950;SDS011;6540;50.858;7.232;2023-04-10T05:55:37;7.70;;;4.77;;
12950;SDS011;6540;50.858;7.232;2023-04-10T05:58:02;7.97;;;4.50;;
12950;SDS011;6540;50.858;7.232;2023-04-10T06:00:27;8.00;;;5.27;;
12950;SDS011;6540;50.858;7.232;2023-04-10T06:02:53;7.00;;;5.10;;
12950;SDS011;6540;50.858;7.232;2023-04-10T06:05:18;8.03;;;5.77;;
12950;SDS011;6540;50.858;7.232;2023-04-10T06:07:43;9.37;;;5.47;;
12950;SDS011;6540;50.858;7.232;2023-04-10T06:10:09;11.47;;;6.10;;
12950;SDS011;6540;50.858;7.232;2023-04-10T06:12:35;8.23;;;5.80;;
12950;SDS011;6540;50.858;7.232;2023-04-10T06:15:00;8.50;;;6.03;;
12950;SDS011;6540;50.858;7.232;2023-04-10T06:17:26;6.23;;;5.33;;
12950;SDS011;6540;50.858;7.232;2023-04-10T06:19:52;6.53;;;5.37;;
12950;SDS011;6540;50.858;7.232;2023-04-10T06:22:17;8.67;;;5.47;;
12950;SDS011;6540;50.858;7.232;2023-04-10T06:24:43;8.77;;;6.50;;
12950;SDS011;6540;50.858;7.232;2023-04-10T06:27:08;8.77;;;6.20;;
12950;SDS011;6540;50.858;7.232;2023-04-10T06:29:33;7.37;;;5.93;;
12950;SDS011;6540;50.858;7.232;2023-04-10T06:31:59;6.87;;;5.50;;
12950;SDS011;6540;50.858;7.232;2023-04-10T06:34:24;7.73;;;5.83;;
12950;SDS011;6540;50.858;7.232;2023-04-10T06:36:50;6.07;;;5.20;;
12950;SDS011;6540;50.858;7.232;2023-04-10T06:39:16;8.27;;;5.63;;
12950;SDS011;6540;50.858;7.232;2023-04-10T06:41:41;7.23;;;4.90;;
12950;SDS011;6540;50.858;7.232;2023-04-10T06:44:07;8.00;;;5.07;;
12950;SDS011;6540;50.858;7.232;2023-04-10T06:46:32;6.40;;;5.10;;
12950;SDS011;6540;50.858;7.232;2023-04-10T06:48:57;6.67;;;5.07;;
12950;SDS011;6540;50.858;7.232;2023-04-10T06:51:23;6.80;;;5.33;;
12950;SDS011;6540;50.858;7.232;2023-04-10T06:53:48;5.47;;;4.50;;
12950;SDS011;6540;50.858;7.232;2023-04-10T06:56:14;6.67;;;5.00;;
12950;SDS011;6540;50.858;7.232;2023-04-10T06:58:39;6.90;;;4.90;;
12950;SDS011;6540;50.858;7.232;2023-04-10T07:01:05;7.23;;;4.60;;
12950;SDS011;6540;50.858;7.232;2023-04-10T07:03:31;5.27;;;4.60;;
12950;SDS011;6540;50.858;7.232;2023-04-10T07:05:56;7.50;;;4.20;;
12950;SDS011;6540;50.858;7.232;2023-04-10T07:08:22;5.20;;;4.40;;
12950;SDS011;6540;50.858;7.232;2023-04-10T07:10:47;7.17;;;5.20;;
12950;SDS011;6540;50.858;7.232;2023-04-10T07:13:13;7.70;;;5.50;;
12950;SDS011;6540;50.858;7.232;2023-04-10T07:15:38;8.07;;;4.93;;
12950;SDS011;6540;50.858;7.232;2023-04-10T07:18:04;5.67;;;4.50;;
12950;SDS011;6540;50.858;7.232;2023-04-10T07:20:30;6.43;;;4.90;;
12950;SDS011;6540;50.858;7.232;2023-04-10T07:22:56;6.50;;;4.83;;
12950;SDS011;6540;50.858;7.232;2023-04-10T07:25:21;4.50;;;4.10;;
12950;SDS011;6540;50.858;7.232;2023-04-10T07:27:47;6.77;;;4.97;;
12950;SDS011;6540;50.858;7.232;2023-04-10T07:30:12;6.47;;;4.00;;
12950;SDS011;6540;50.858;7.232;2023-04-10T07:32:38;5.93;;;4.90;;
12950;SDS011;6540;50.858;7.232;2023-04-10T07:35:04;6.50;;;4.43;;
12950;SDS011;6540;50.858;7.232;2023-04-10T07:37:31;6.03;;;4.20;;
12950;SDS011;6540;50.858;7.232;2023-04-10T07:39:56;5.33;;;4.43;;
12950;SDS011;6540;50.858;7.232;2023-04-10T07:42:21;6.67;;;4.63;;
12950;SDS011;6540;50.858;7.232;2023-04-10T07:44:47;5.83;;;4.30;;
12950;SDS011;6540;50.858;7.232;2023-04-10T07:47:12;6.03;;;4.30;;
12950;SDS011;6540;50.858;7.232;2023-04-10T07:49:38;5.90;;;4.20;;
12950;SDS011;6540;50.858;7.232;2023-04-10T07:52:03;6.77;;;4.70;;
12950;SDS011;6540;50.858;7.232;2023-04-10T07:54:32;4.97;;;4.17;;
12950;SDS011;6540;50.858;7.232;2023-04-10T07:56:58;4.87;;;4.30;;
12950;SDS011;6540;50.858;7.232;2023-04-10T07:59:23;6.23;;;4.20;;
12950;SDS011;6540;50.858;7.232;2023-04-10T08:01:49;4.77;;;3.80;;
12950;SDS011;6540;50.858;7.232;2023-04-10T08:04:14;3.67;;;3.07;;
12950;SDS011;6540;50.858;7.232;2023-04-10T08:06:40;5.57;;;3.90;;
12950;SDS011;6540;50.858;7.232;2023-04-10T08:09:05;4.23;;;3.83;;
12950;SDS011;6540;50.858;7.232;2023-04-10T08:11:31;3.90;;;3.20;;
12950;SDS011;6540;50.858;7.232;2023-04-10T08:14:01;4.63;;;3.60;;
12950;SDS011;6540;50.858;7.232;2023-04-10T08:16:28;4.57;;;3.60;;
12950;SDS011;6540;50.858;7.232;2023-04-10T08:18:55;5.77;;;4.13;;
12950;SDS011;6540;50.858;7.232;2023-04-10T08:21:21;4.70;;;3.70;;
12950;SDS011;6540;50.858;7.232;2023-04-10T08:23:51;3.43;;;2.97;;
12950;SDS011;6540;50.858;7.232;2023-04-10T08:26:20;4.83;;;3.80;;
12950;SDS011;6540;50.858;7.232;2023-04-10T08:28:47;4.43;;;3.43;;
12950;SDS011;6540;50.858;7.232;2023-04-10T08:31:14;3.93;;;3.37;;
12950;SDS011;6540;50.858;7.232;2023-04-10T08:33:40;3.63;;;3.20;;
12950;SDS011;6540;50.858;7.232;2023-04-10T08:36:07;3.73;;;3.40;;
12950;SDS011;6540;50.858;7.232;2023-04-10T08:38:33;3.60;;;3.10;;
12950;SDS011;6540;50.858;7.232;2023-04-10T08:40:58;4.30;;;2.83;;
12950;SDS011;6540;50.858;7.232;2023-04-10T08:43:24;3.60;;;3.30;;
12950;SDS011;6540;50.858;7.232;2023-04-10T08:45:50;6.57;;;3.47;;
12950;SDS011;6540;50.858;7.232;2023-04-10T08:48:17;5.03;;;3.40;;
12950;SDS011;6540;50.858;7.232;2023-04-10T08:50:44;4.60;;;3.07;;
12950;SDS011;6540;50.858;7.232;2023-04-10T08:53:10;3.50;;;3.20;;
12950;SDS011;6540;50.858;7.232;2023-04-10T08:55:38;3.63;;;3.00;;
12950;SDS011;6540;50.858;7.232;2023-04-10T08:58:05;6.17;;;3.50;;
12950;SDS011;6540;50.858;7.232;2023-04-10T09:00:34;7.37;;;3.17;;
12950;SDS011;6540;50.858;7.232;2023-04-10T09:03:03;5.33;;;3.73;;
12950;SDS011;6540;50.858;7.232;2023-04-10T09:05:29;4.13;;;3.30;;
12950;SDS011;6540;50.858;7.232;2023-04-10T09:07:55;3.37;;;3.00;;
12950;SDS011;6540;50.858;7.232;2023-04-10T09:10:20;4.07;;;3.40;;
12950;SDS011;6540;50.858;7.232;2023-04-10T09:12:46;3.60;;;2.60;;
12950;SDS011;6540;50.858;7.232;2023-04-10T09:15:12;4.20;;;3.13;;
12950;SDS011;6540;50.858;7.232;2023-04-10T09:20:20;3.87;;;2.90;;
12950;SDS011;6540;50.858;7.232;2023-04-10T09:22:47;3.60;;;3.17;;
12950;SDS011;6540;50.858;7.232;2023-04-10T09:25:32;5.30;;;3.50;;
12950;SDS011;6540;50.858;7.232;2023-04-10T09:28:00;4.53;;;2.90;;
12950;SDS011;6540;50.858;7.232;2023-04-10T09:30:33;3.27;;;2.83;;
12950;SDS011;6540;50.858;7.232;2023-04-10T09:35:45;3.20;;;2.90;;
12950;SDS011;6540;50.858;7.232;2023-04-10T09:38:14;3.77;;;3.37;;
12950;SDS011;6540;50.858;7.232;2023-04-10T09:40:41;4.83;;;3.47;;
12950;SDS011;6540;50.858;7.232;2023-04-10T09:45:54;5.10;;;3.17;;
12950;SDS011;6540;50.858;7.232;2023-04-10T09:48:22;4.33;;;3.20;;
12950;SDS011;6540;50.858;7.232;2023-04-10T09:50:48;3.90;;;2.93;;
12950;SDS011;6540;50.858;7.232;2023-04-10T09:53:15;3.43;;;2.87;;
12950;SDS011;6540;50.858;7.232;2023-04-10T09:55:43;5.17;;;3.20;;
12950;SDS011;6540;50.858;7.232;2023-04-10T09:58:10;3.10;;;2.80;;
12950;SDS011;6540;50.858;7.232;2023-04-10T10:00:47;3.50;;;2.80;;
12950;SDS011;6540;50.858;7.232;2023-04-10T10:03:14;3.30;;;2.70;;
12950;SDS011;6540;50.858;7.232;2023-04-10T10:05:41;3.33;;;2.63;;
12950;SDS011;6540;50.858;7.232;2023-04-10T10:08:12;3.23;;;2.60;;
12950;SDS011;6540;50.858;7.232;2023-04-10T10:10:42;2.90;;;2.63;;
12950;SDS011;6540;50.858;7.232;2023-04-10T10:13:11;3.30;;;3.00;;
12950;SDS011;6540;50.858;7.232;2023-04-10T10:16:01;3.00;;;2.60;;
12950;SDS011;6540;50.858;7.232;2023-04-10T10:21:27;3.17;;;2.87;;
12950;SDS011;6540;50.858;7.232;2023-04-10T10:23:53;3.37;;;2.47;;
12950;SDS011;6540;50.858;7.232;2023-04-10T10:26:22;3.67;;;2.60;;
12950;SDS011;6540;50.858;7.232;2023-04-10T10:28:49;3.33;;;3.00;;
12950;SDS011;6540;50.858;7.232;2023-04-10T10:31:15;2.87;;;2.50;;
12950;SDS011;6540;50.858;7.232;2023-04-10T10:33:43;2.83;;;2.40;;
12950;SDS011;6540;50.858;7.232;2023-04-10T10:36:11;3.00;;;2.53;;
12950;SDS011;6540;50.858;7.232;2023-04-10T10:38:39;4.17;;;2.97;;
12950;SDS011;6540;50.858;7.232;2023-04-10T10:41:14;3.67;;;2.80;;
12950;SDS011;6540;50.858;7.232;2023-04-10T10:48:57;3.60;;;3.00;;
12950;SDS011;6540;50.858;7.232;2023-04-10T10:51:23;3.10;;;2.40;;
12950;SDS011;6540;50.858;7.232;2023-04-10T10:56:51;2.73;;;2.43;;
12950;SDS011;6540;50.858;7.232;2023-04-10T10:59:16;2.30;;;2.10;;
12950;SDS011;6540;50.858;7.232;2023-04-10T11:02:00;2.77;;;2.40;;
12950;SDS011;6540;50.858;7.232;2023-04-10T11:04:43;2.40;;;2.20;;
12950;SDS011;6540;50.858;7.232;2023-04-10T11:07:10;2.70;;;2.47;;
12950;SDS011;6540;50.858;7.232;2023-04-10T11:09:49;4.30;;;2.60;;
12950;SDS011;6540;50.858;7.232;2023-04-10T11:12:18;2.40;;;2.20;;
12950;SDS011;6540;50.858;7.232;2023-04-10T11:14:56;2.30;;;2.10;;
12950;SDS011;6540;50.858;7.232;2023-04-10T11:18:00;2.43;;;2.13;;
12950;SDS011;6540;50.858;7.232;2023-04-10T11:20:19;2.47;;;2.20;;
12950;SDS011;6540;50.858;7.232;2023-04-10T11:36:23;2.57;;;1.97;;
12950;SDS011;6540;50.858;7.232;2023-04-10T11:38:56;2.53;;;2.13;;
12950;SDS011;6540;50.858;7.232;2023-04-10T11:41:40;2.63;;;2.40;;
12950;SDS011;6540;50.858;7.232;2023-04-10T11:44:08;2.63;;;2.40;;
12950;SDS011;6540;50.858;7.232;2023-04-10T11:46:36;2.77;;;2.23;;
12950;SDS011;6540;50.858;7.232;2023-04-10T11:49:04;2.17;;;1.80;;
12950;SDS011;6540;50.858;7.232;2023-04-10T11:51:33;2.40;;;1.90;;
12950;SDS011;6540;50.858;7.232;2023-04-10T11:54:07;1.93;;;1.80;;
12950;SDS011;6540;50.858;7.232;2023-04-10T11:56:38;2.40;;;2.10;;
12950;SDS011;6540;50.858;7.232;2023-04-10T11:59:05;2.10;;;1.83;;
12950;SDS011;6540;50.858;7.232;2023-04-10T12:01:34;2.10;;;1.90;;
12950;SDS011;6540;50.858;7.232;2023-04-10T12:04:13;2.27;;;2.07;;
12950;SDS011;6540;50.858;7.232;2023-04-10T12:06:42;2.53;;;2.10;;
12950;SDS011;6540;50.858;7.232;2023-04-10T12:09:12;3.10;;;2.20;;
12950;SDS011;6540;50.858;7.232;2023-04-10T12:11:46;2.60;;;2.13;;
12950;SDS011;6540;50.858;7.232;2023-04-10T12:14:13;2.33;;;1.90;;
12950;SDS011;6540;50.858;7.232;2023-04-10T12:16:41;2.30;;;2.10;;
12950;SDS011;6540;50.858;7.232;2023-04-10T12:19:06;2.10;;;1.90;;
12950;SDS011;6540;50.858;7.232;2023-04-10T12:21:36;2.27;;;2.07;;
12950;SDS011;6540;50.858;7.232;2023-04-10T12:24:06;2.10;;;1.90;;
12950;SDS011;6540;50.858;7.232;2023-04-10T12:26:31;2.53;;;2.07;;
12950;SDS011;6540;50.858;7.232;2023-04-10T12:28:57;2.23;;;2.03;;
12950;SDS011;6540;50.858;7.232;2023-04-10T12:31:26;2.33;;;2.03;;
12950;SDS011;6540;50.858;7.232;2023-04-10T12:33:52;3.13;;;2.20;;
12950;SDS011;6540;50.858;7.232;2023-04-10T12:36:22;2.57;;;2.30;;
12950;SDS011;6540;50.858;7.232;2023-04-10T12:38:48;2.57;;;2.00;;
12950;SDS011;6540;50.858;7.232;2023-04-10T12:41:13;2.93;;;2.30;;
12950;SDS011;6540;50.858;7.232;2023-04-10T12:43:50;2.30;;;2.10;;
12950;SDS011;6540;50.858;7.232;2023-04-10T12:46:24;2.40;;;2.20;;
12950;SDS011;6540;50.858;7.232;2023-04-10T12:48:50;2.20;;;2.00;;
12950;SDS011;6540;50.858;7.232;2023-04-10T12:51:16;2.73;;;2.30;;
12950;SDS011;6540;50.858;7.232;2023-04-10T12:53:42;2.60;;;2.40;;
12950;SDS011;6540;50.858;7.232;2023-04-10T12:56:08;2.70;;;2.23;;
12950;SDS011;6540;50.858;7.232;2023-04-10T12:58:36;2.53;;;2.33;;
12950;SDS011;6540;50.858;7.232;2023-04-10T13:01:05;2.47;;;2.27;;
12950;SDS011;6540;50.858;7.232;2023-04-10T13:03:33;3.23;;;2.20;;
12950;SDS011;6540;50.858;7.232;2023-04-10T13:06:05;3.30;;;2.40;;
12950;SDS011;6540;50.858;7.232;2023-04-10T13:08:32;3.07;;;2.30;;
12950;SDS011;6540;50.858;7.232;2023-04-10T13:10:58;2.60;;;2.33;;
12950;SDS011;6540;50.858;7.232;2023-04-10T13:13:28;2.97;;;2.10;;
12950;SDS011;6540;50.858;7.232;2023-04-10T13:16:00;2.87;;;2.17;;
12950;SDS011;6540;50.858;7.232;2023-04-10T13:18:25;4.03;;;2.27;;
12950;SDS011;6540;50.858;7.232;2023-04-10T13:20:51;2.30;;;2.10;;
12950;SDS011;6540;50.858;7.232;2023-04-10T13:23:17;2.63;;;2.10;;
12950;SDS011;6540;50.858;7.232;2023-04-10T13:25:42;2.90;;;1.90;;
12950;SDS011;6540;50.858;7.232;2023-04-10T13:28:08;2.47;;;2.27;;
12950;SDS011;6540;50.858;7.232;2023-04-10T13:30:37;2.23;;;2.03;;
12950;SDS011;6540;50.858;7.232;2023-04-10T13:33:04;2.20;;;2.00;;
12950;SDS011;6540;50.858;7.232;2023-04-10T13:35:29;2.30;;;2.10;;
12950;SDS011;6540;50.858;7.232;2023-04-10T13:37:55;2.47;;;2.27;;
12950;SDS011;6540;50.858;7.232;2023-04-10T13:40:20;2.40;;;2.03;;
12950;SDS011;6540;50.858;7.232;2023-04-10T13:42:46;1.80;;;1.70;;
12950;SDS011;6540;50.858;7.232;2023-04-10T13:45:12;2.00;;;1.80;;
12950;SDS011;6540;50.858;7.232;2023-04-10T13:47:38;2.13;;;1.93;;
12950;SDS011;6540;50.858;7.232;2023-04-10T13:50:04;2.10;;;1.90;;
12950;SDS011;6540;50.858;7.232;2023-04-10T13:52:29;1.80;;;1.70;;
12950;SDS011;6540;50.858;7.232;2023-04-10T13:54:55;2.10;;;1.90;;
12950;SDS011;6540;50.858;7.232;2023-04-10T13:57:20;1.70;;;1.60;;
12950;SDS011;6540;50.858;7.232;2023-04-10T13:59:45;1.90;;;1.57;;
12950;SDS011;6540;50.858;7.232;2023-04-10T14:02:11;1.97;;;1.77;;
12950;SDS011;6540;50.858;7.232;2023-04-10T14:04:36;2.10;;;1.73;;
12950;SDS011;6540;50.858;7.232;2023-04-10T14:07:01;2.47;;;2.20;;
12950;SDS011;6540;50.858;7.232;2023-04-10T14:09:27;2.80;;;1.93;;
12950;SDS011;6540;50.858;7.232;2023-04-10T14:11:52;1.70;;;1.60;;
12950;SDS011;6540;50.858;7.232;2023-04-10T14:14:20;1.73;;;1.40;;
12950;SDS011;6540;50.858;7.232;2023-04-10T14:16:48;2.67;;;1.50;;
12950;SDS011;6540;50.858;7.232;2023-04-10T14:19:13;2.00;;;1.80;;
12950;SDS011;6540;50.858;7.232;2023-04-10T14:21:38;2.40;;;2.07;;
12950;SDS011;6540;50.858;7.232;2023-04-10T14:24:04;1.60;;;1.47;;
12950;SDS011;6540;50.858;7.232;2023-04-10T14:26:30;2.00;;;1.80;;
12950;SDS011;6540;50.858;7.232;2023-04-10T14:28:55;2.30;;;1.80;;
12950;SDS011;6540;50.858;7.232;2023-04-10T14:31:21;2.00;;;1.77;;
12950;SDS011;6540;50.858;7.232;2023-04-10T14:33:46;1.80;;;1.70;;
12950;SDS011;6540;50.858;7.232;2023-04-10T14:36:11;1.80;;;1.70;;
12950;SDS011;6540;50.858;7.232;2023-04-10T14:38:37;1.50;;;1.40;;
12950;SDS011;6540;50.858;7.232;2023-04-10T14:41:02;2.00;;;1.70;;
12950;SDS011;6540;50.858;7.232;2023-04-10T14:43:28;3.33;;;1.70;;
12950;SDS011;6540;50.858;7.232;2023-04-10T14:45:53;1.40;;;1.30;;
12950;SDS011;6540;50.858;7.232;2023-04-10T14:48:18;1.77;;;1.50;;
12950;SDS011;6540;50.858;7.232;2023-04-10T14:50:45;2.10;;;1.27;;
12950;SDS011;6540;50.858;7.232;2023-04-10T14:53:11;1.70;;;1.60;;
12950;SDS011;6540;50.858;7.232;2023-04-10T14:55:36;1.90;;;1.70;;
12950;SDS011;6540;50.858;7.232;2023-04-10T14:58:01;1.67;;;1.57;;
12950;SDS011;6540;50.858;7.232;2023-04-10T15:00:27;1.90;;;1.70;;
12950;SDS011;6540;50.858;7.232;2023-04-10T15:02:53;1.60;;;1.50;;
12950;SDS011;6540;50.858;7.232;2023-04-10T15:05:21;1.67;;;1.57;;
12950;SDS011;6540;50.858;7.232;2023-04-10T15:07:47;2.80;;;1.37;;
12950;SDS011;6540;50.858;7.232;2023-04-10T15:10:12;1.57;;;1.47;;
12950;SDS011;6540;50.858;7.232;2023-04-10T15:12:37;1.70;;;1.60;;
12950;SDS011;6540;50.858;7.232;2023-04-10T15:15:03;1.93;;;1.73;;
12950;SDS011;6540;50.858;7.232;2023-04-10T15:17:29;1.60;;;1.50;;
12950;SDS011;6540;50.858;7.232;2023-04-10T15:19:54;1.73;;;1.63;;
12950;SDS011;6540;50.858;7.232;2023-04-10T15:22:20;1.90;;;1.80;;
12950;SDS011;6540;50.858;7.232;2023-04-10T15:24:45;1.97;;;1.77;;
12950;SDS011;6540;50.858;7.232;2023-04-10T15:27:10;1.70;;;1.60;;
12950;SDS011;6540;50.858;7.232;2023-04-10T15:29:36;1.70;;;1.60;;
12950;SDS011;6540;50.858;7.232;2023-04-10T15:32:03;1.70;;;1.60;;
12950;SDS011;6540;50.858;7.232;2023-04-10T15:34:29;2.60;;;1.73;;
12950;SDS011;6540;50.858;7.232;2023-04-10T15:36:54;2.00;;;1.90;;
12950;SDS011;6540;50.858;7.232;2023-04-10T15:39:19;1.93;;;1.60;;
12950;SDS011;6540;50.858;7.232;2023-04-10T15:41:45;1.90;;;1.80;;